Time;durP1;ratioP1;P1;durP2;ratioP2;P2;SDS_P1;SDS_P2;PMS_P1;PMS_P2;Temp;Humidity;BMP_temperature;BMP_pressure;BME280_temperature;BME280_humidity;BME280_pressure;Samples;Min_cycle;Max_cycle;Signal;HPM_P1;HPM_P2
2021/12/09 00:01:16;;;;;;;11.23;6.55;;;;;;;;;;5035634;28;20124;-68
2021/12/09 00:03:42;;;;;;;10.77;6.47;;;2.80;99.90;;;;;;5051809;28;20107;-68
2021/12/09 00:06:11;;;;;;;12.80;6.35;;;2.80;99.90;;;;;;5075003;22;20106;-69
2021/12/09 00:08:38;;;;;;;14.82;6.75;;;;;;;;;;5035701;28;20036;-69
2021/12/09 00:11:05;;;;;;;11.85;6.65;;;2.80;99.90;;;;;;5069198;28;20040;-69
2021/12/09 00:13:31;;;;;;;10.05;7.40;;;;;;;;;;5053055;28;20045;-69
2021/12/09 00:15:58;;;;;;;14.07;6.28;;;;;;;;;;5068742;28;20044;-69
2021/12/09 00:18:24;;;;;;;15.18;7.10;;;2.80;99.90;;;;;;5053344;28;20052;-69
2021/12/09 00:20:50;;;;;;;13.55;6.40;;;2.80;99.90;;;;;;5035456;28;20041;-70
2021/12/09 00:23:16;;;;;;;13.43;7.28;;;;;;;;;;5052203;28;20040;-69
2021/12/09 00:25:42;;;;;;;14.38;7.20;;;;;;;;;;5050398;28;20029;-69
2021/12/09 00:28:08;;;;;;;13.25;7.55;;;;;;;;;;5051907;28;20441;-69
2021/12/09 00:30:35;;;;;;;16.08;6.97;;;2.60;99.90;;;;;;5051934;28;20041;-69
2021/12/09 00:33:04;;;;;;;13.82;7.38;;;2.80;99.90;;;;;;5035168;28;20076;-69
2021/12/09 00:35:42;;;;;;;14.20;8.55;;;2.60;99.90;;;;;;5067496;28;20079;-69
2021/12/09 00:38:10;;;;;;;18.00;7.55;;;;;;;;;;5051777;28;20072;-69
2021/12/09 00:40:36;;;;;;;13.90;7.85;;;;;;;;;;5052992;28;20041;-69
2021/12/09 00:43:03;;;;;;;12.48;7.57;;;;;;;;;;5051786;28;20075;-69
2021/12/09 00:45:29;;;;;;;17.38;8.18;;;;;;;;;;5051245;28;20061;-69
2021/12/09 00:47:55;;;;;;;15.05;7.30;;;;;;;;;;5051452;28;20411;-68
2021/12/09 00:50:21;;;;;;;13.57;7.72;;;;;;;;;;5051372;28;20123;-69
2021/12/09 00:52:47;;;;;;;14.15;7.68;;;;;;;;;;5035080;28;20131;-69
2021/12/09 00:55:14;;;;;;;17.20;7.72;;;;;;;;;;5051262;28;20048;-69
2021/12/09 00:57:41;;;;;;;16.92;9.10;;;2.50;99.90;;;;;;5051069;28;20136;-68
2021/12/09 01:00:15;;;;;;;14.45;8.18;;;2.60;99.90;;;;;;5051581;28;20493;-69
2021/12/09 01:02:41;;;;;;;15.45;9.15;;;;;;;;;;5051436;28;20056;-69
2021/12/09 01:05:08;;;;;;;16.30;9.90;;;2.50;99.90;;;;;;5050846;28;20044;-69
2021/12/09 01:07:34;;;;;;;12.38;7.97;;;;;;;;;;5051164;28;20096;-69
2021/12/09 01:10:00;;;;;;;12.88;7.75;;;;;;;;;;5051107;28;20048;-70
2021/12/09 01:12:26;;;;;;;16.60;7.53;;;;;;;;;;5051275;28;20056;-69
2021/12/09 01:14:52;;;;;;;15.10;8.35;;;;;;;;;;5051046;28;20320;-69
2021/12/09 01:17:19;;;;;;;16.38;9.60;;;;;;;;;;5034226;28;20056;-69
2021/12/09 01:19:45;;;;;;;15.02;8.35;;;;;;;;;;5051162;28;20430;-69
2021/12/09 01:22:11;;;;;;;16.75;9.32;;;;;;;;;;5050842;28;20111;-69
2021/12/09 01:24:37;;;;;;;16.05;8.55;;;;;;;;;;5050636;28;20051;-68
2021/12/09 01:27:04;;;;;;;18.92;9.65;;;;;;;;;;5050737;28;20116;-69
2021/12/09 01:29:39;;;;;;;17.02;9.18;;;2.60;99.90;;;;;;5050789;28;20490;-69
2021/12/09 01:32:07;;;;;;;14.45;9.18;;;;;;;;;;5067647;28;20059;-69
2021/12/09 01:34:34;;;;;;;15.38;9.07;;;;;;;;;;5050484;28;20045;-69
2021/12/09 01:37:00;;;;;;;16.10;8.77;;;;;;;;;;5050014;28;20078;-69
2021/12/09 01:39:28;;;;;;;18.77;9.35;;;2.60;99.90;;;;;;5034040;28;20045;-69
2021/12/09 01:41:56;;;;;;;15.82;9.10;;;2.50;99.90;;;;;;5050938;28;20410;-69
2021/12/09 01:44:22;;;;;;;17.77;8.82;;;;;;;;;;5050592;28;20048;-69
2021/12/09 01:46:49;;;;;;;18.50;8.77;;;;;;;;;;5050802;28;20041;-69
2021/12/09 01:49:15;;;;;;;20.38;9.40;;;;;;;;;;5050832;28;20068;-69
2021/12/09 01:51:41;;;;;;;18.60;9.27;;;;;;;;;;5033885;28;20490;-69
2021/12/09 01:54:07;;;;;;;17.50;10.02;;;2.50;99.90;;;;;;5050409;28;20077;-69
2021/12/09 01:56:33;;;;;;;18.65;10.18;;;2.50;99.90;;;;;;5050391;28;20048;-69
2021/12/09 01:59:03;;;;;;;18.52;10.13;;;2.50;99.90;;;;;;5050687;28;20398;-69
2021/12/09 02:01:29;;;;;;;19.77;10.73;;;;;;;;;;5050234;28;20041;-69
2021/12/09 02:03:56;;;;;;;18.52;9.32;;;2.20;99.90;;;;;;5033827;28;20406;-69
2021/12/09 02:06:22;;;;;;;16.25;8.77;;;2.50;99.90;;;;;;5066586;28;20048;-69
2021/12/09 02:08:49;;;;;;;20.08;9.50;;;;;;;;;;5067310;28;20372;-69
2021/12/09 02:11:15;;;;;;;17.58;10.20;;;2.50;99.90;;;;;;5050405;28;20558;-69
2021/12/09 02:13:42;;;;;;;18.02;10.05;;;;;;;;;;5050286;28;20052;-69
2021/12/09 02:16:09;;;;;;;20.65;10.07;;;;;;;;;;5033248;28;20037;-69
2021/12/09 02:18:35;;;;;;;21.10;11.10;;;2.30;99.90;;;;;;5050191;28;20087;-69
2021/12/09 02:21:07;;;;;;;17.55;9.93;;;;;;;;;;5050174;28;20122;-69
2021/12/09 02:23:33;;;;;;;16.75;10.02;;;;;;;;;;5049990;28;20073;-69
2021/12/09 02:25:59;;;;;;;17.65;10.38;;;2.30;99.90;;;;;;5049736;28;20042;-69
2021/12/09 02:28:26;;;;;;;17.73;10.35;;;2.10;99.90;;;;;;5050169;28;20029;-69
2021/12/09 02:30:52;;;;;;;18.67;9.20;;;2.30;99.90;;;;;;5050319;28;20091;-69
2021/12/09 02:33:17;;;;;;;18.63;10.45;;;2.20;99.90;;;;;;5050109;28;20045;-69
2021/12/09 02:35:43;;;;;;;20.55;10.07;;;2.20;99.90;;;;;;5049408;28;20045;-69
2021/12/09 02:38:09;;;;;;;19.35;9.32;;;;;;;;;;5050245;28;20045;-69
2021/12/09 02:40:35;;;;;;;16.85;9.57;;;;;;;;;;5033644;28;20483;-69
2021/12/09 02:43:03;;;;;;;17.70;10.27;;;2.20;99.90;;;;;;5033671;28;20494;-69
2021/12/09 02:45:29;;;;;;;20.85;10.65;;;2.20;99.90;;;;;;5049522;28;20033;-69
2021/12/09 02:47:54;;;;;;;21.25;11.18;;;2.20;99.90;;;;;;5033827;28;20059;-69
2021/12/09 02:50:20;;;;;;;23.02;10.65;;;2.20;99.90;;;;;;5037137;28;20554;-69
2021/12/09 02:52:48;;;;;;;20.23;12.00;;;;;;;;;;5053787;28;20044;-69
2021/12/09 02:55:14;;;;;;;22.20;11.27;;;2.30;99.90;;;;;;5053565;28;20098;-69
2021/12/09 02:57:40;;;;;;;23.15;10.40;;;;;;;;;;5053627;28;20037;-69
2021/12/09 03:00:07;;;;;;;24.23;10.82;;;;;;;;;;5053633;28;20127;-69
2021/12/09 03:02:33;;;;;;;18.40;10.70;;;2.30;99.90;;;;;;5036913;28;20041;-69
2021/12/09 03:05:01;;;;;;;18.52;10.52;;;2.30;99.90;;;;;;5053263;28;20411;-69
2021/12/09 03:07:34;;;;;;;22.50;10.82;;;2.40;99.90;;;;;;5053485;28;20505;-69
2021/12/09 03:10:24;;;;;;;17.05;11.15;;;2.40;99.90;;;;;;5053989;28;20048;-69
2021/12/09 03:13:01;;;;;;;24.45;10.65;;;;;;;;;;5053421;28;20116;-69
2021/12/09 03:15:27;;;;;;;27.00;11.63;;;;;;;;;;5052898;28;20045;-69
2021/12/09 03:17:53;;;;;;;16.48;10.80;;;;;;;;;;5053547;28;20137;-68
2021/12/09 03:20:20;;;;;;;23.83;11.55;;;2.40;99.90;;;;;;5053210;28;20044;-69
2021/12/09 03:22:47;;;;;;;18.42;10.98;;;;;;;;;;5053170;28;20045;-69
2021/12/09 03:25:14;;;;;;;21.95;11.43;;;;;;;;;;5053040;28;20037;-68
2021/12/09 03:27:40;;;;;;;21.08;11.38;;;2.30;99.90;;;;;;5052800;28;20051;-69
2021/12/09 03:30:09;;;;;;;16.98;10.23;;;2.40;99.90;;;;;;5053033;28;20565;-69
2021/12/09 03:32:35;;;;;;;29.80;12.85;;;2.30;99.90;;;;;;5054681;28;20041;-69
2021/12/09 03:35:01;;;;;;;21.48;11.52;;;;;;;;;;5052552;28;20040;-68
2021/12/09 03:37:27;;;;;;;17.60;11.60;;;2.30;99.90;;;;;;5053817;28;20502;-69
2021/12/09 03:39:54;;;;;;;23.02;12.30;;;2.20;99.90;;;;;;5053070;28;20048;-69
2021/12/09 03:42:21;;;;;;;24.52;11.15;;;;;;;;;;5054130;28;20033;-69
2021/12/09 03:44:48;;;;;;;20.70;11.15;;;2.20;99.90;;;;;;5052611;28;20048;-69
2021/12/09 03:47:15;;;;;;;26.00;13.02;;;;;;;;;;5052740;28;20404;-69
2021/12/09 03:49:42;;;;;;;20.45;11.40;;;2.20;99.90;;;;;;5052886;28;20087;-69
2021/12/09 03:52:08;;;;;;;26.50;11.75;;;;;;;;;;5052679;28;20037;-68
2021/12/09 03:54:34;;;;;;;20.23;11.38;;;2.20;99.90;;;;;;5035922;28;20049;-69
2021/12/09 03:57:00;;;;;;;18.45;11.30;;;2.30;99.90;;;;;;5053533;28;20037;-69
2021/12/09 03:59:26;;;;;;;21.85;11.80;;;;;;;;;;5052243;28;20123;-69
2021/12/09 04:01:52;;;;;;;19.75;11.07;;;2.10;99.90;;;;;;5036097;28;20403;-69
2021/12/09 04:04:18;;;;;;;19.25;10.65;;;2.10;99.90;;;;;;5052113;28;20043;-69
2021/12/09 04:06:45;;;;;;;21.42;11.32;;;;;;;;;;5052116;28;20080;-68
2021/12/09 04:09:12;;;;;;;22.67;12.43;;;;;;;;;;5052210;28;20044;-69
2021/12/09 04:11:38;;;;;;;17.98;11.00;;;;;;;;;;5052310;28;20567;-69
2021/12/09 04:14:05;;;;;;;20.00;11.30;;;2.00;99.90;;;;;;5052398;28;20394;-69
2021/12/09 04:16:31;;;;;;;22.67;11.68;;;;;;;;;;5052068;28;20041;-68
2021/12/09 04:19:00;;;;;;;25.00;12.23;;;;;;;;;;5052548;28;20395;-69
2021/12/09 04:21:26;;;;;;;21.02;12.60;;;;;;;;;;5052280;28;20053;-69
2021/12/09 04:23:53;;;;;;;25.17;11.75;;;;;;;;;;5051937;28;20477;-69
2021/12/09 04:26:19;;;;;;;22.02;12.20;;;;;;;;;;5051853;28;20041;-69
2021/12/09 04:28:45;;;;;;;24.35;11.13;;;;;;;;;;5051893;28;20552;-69
2021/12/09 04:31:11;;;;;;;23.15;10.93;;;;;;;;;;5052039;28;20329;-68
2021/12/09 04:33:37;;;;;;;26.08;12.50;;;;;;;;;;5051546;28;20140;-69
2021/12/09 04:36:04;;;;;;;17.92;10.15;;;1.80;99.90;;;;;;5051758;28;20057;-69
2021/12/09 04:38:30;;;;;;;19.05;11.07;;;1.70;99.90;;;;;;5052039;28;20554;-68
2021/12/09 04:40:56;;;;;;;21.27;11.13;;;;;;;;;;5051849;28;20091;-69
2021/12/09 04:43:22;;;;;;;18.58;11.00;;;;;;;;;;5054140;28;20100;-68
2021/12/09 04:45:48;;;;;;;27.38;12.13;;;;;;;;;;5051447;28;20307;-68
2021/12/09 04:48:14;;;;;;;22.63;11.32;;;;;;;;;;5051516;28;20509;-69
2021/12/09 04:50:42;;;;;;;21.88;10.75;;;;;;;;;;5051722;28;20041;-69
2021/12/09 04:53:09;;;;;;;21.50;12.07;;;;;;;;;;5051743;28;20529;-69
2021/12/09 04:55:35;;;;;;;19.95;11.00;;;;;;;;;;5051023;28;20120;-69
2021/12/09 04:58:01;;;;;;;24.67;11.20;;;;;;;;;;5051335;28;20522;-69
2021/12/09 05:00:29;;;;;;;22.77;11.30;;;;;;;;;;5051325;28;20120;-69
2021/12/09 05:03:10;;;;;;;26.00;11.63;;;;;;;;;;5051283;28;20048;-68
2021/12/09 05:05:44;;;;;;;24.08;11.38;;;1.60;99.90;;;;;;5050971;28;20053;-69
2021/12/09 05:08:11;;;;;;;;;;;1.80;99.90;;;;;;5051739;28;20048;-69
2021/12/09 05:10:55;;;;;;;20.98;10.20;;;;;;;;;;5050503;28;19932;-69
2021/12/09 05:13:21;;;;;;;22.55;12.18;;;;;;;;;;5051101;28;20041;-69
2021/12/09 05:15:48;;;;;;;15.80;10.18;;;1.80;99.90;;;;;;5050823;28;20045;-70
2021/12/09 05:18:15;;;;;;;17.13;11.32;;;1.70;99.90;;;;;;5034434;28;20122;-69
2021/12/09 05:20:42;;;;;;;15.80;10.82;;;;;;;;;;5051031;28;20048;-69
2021/12/09 05:23:08;;;;;;;22.17;11.82;;;1.60;99.90;;;;;;5051168;28;20117;-69
2021/12/09 05:25:34;;;;;;;21.50;10.93;;;;;;;;;;5050617;28;20577;-69
2021/12/09 05:28:00;;;;;;;23.45;11.05;;;;;;;;;;5051060;28;20105;-69
2021/12/09 05:30:38;;;;;;;23.63;10.88;;;;;;;;;;5034535;28;20425;-69
2021/12/09 05:33:05;;;;;;;26.80;11.57;;;1.60;99.90;;;;;;5050856;28;20125;-69
2021/12/09 05:35:31;;;;;;;22.75;10.48;;;;;;;;;;5050028;28;20506;-69
2021/12/09 05:37:57;;;;;;;19.88;10.88;;;1.60;99.90;;;;;;5034011;28;20037;-68
2021/12/09 05:40:23;;;;;;;20.92;10.48;;;1.70;99.90;;;;;;5050712;28;20045;-68
2021/12/09 05:42:49;;;;;;;21.77;10.45;;;;;;;;;;5052100;28;20033;-69
2021/12/09 05:45:15;;;;;;;25.83;11.50;;;;;;;;;;5050591;28;20274;-68
2021/12/09 05:47:41;;;;;;;19.45;10.68;;;;;;;;;;5033896;28;20076;-68
2021/12/09 05:50:08;;;;;;;18.88;10.13;;;1.40;99.90;;;;;;5033969;28;20033;-69
2021/12/09 05:52:34;;;;;;;20.30;10.82;;;;;;;;;;5050836;28;20114;-68
2021/12/09 05:55:01;;;;;;;21.33;9.90;;;;;;;;;;5050276;28;20040;-69
2021/12/09 05:57:26;;;;;;;19.95;11.20;;;1.70;99.90;;;;;;5050105;28;20044;-68
2021/12/09 05:59:54;;;;;;;25.30;10.07;;;;;;;;;;5050443;28;20392;-68
2021/12/09 06:02:20;;;;;;;18.27;10.40;;;;;;;;;;5050372;28;20510;-68
2021/12/09 06:04:46;;;;;;;19.30;11.02;;;;;;;;;;5065838;22;20051;-67
2021/12/09 06:07:13;;;;;;;18.85;9.88;;;;;;;;;;5030277;28;20048;-68
2021/12/09 06:09:39;;;;;;;23.55;11.20;;;;;;;;;;5013653;28;20054;-68
2021/12/09 06:12:06;;;;;;;21.92;10.82;;;;;;;;;;5013884;28;20421;-68
2021/12/09 06:14:32;;;;;;;18.52;10.38;;;;;;;;;;5013747;28;20463;-68
2021/12/09 06:16:58;;;;;;;19.15;10.00;;;;;;;;;;4997164;28;20052;-68
2021/12/09 06:19:24;;;;;;;25.00;10.95;;;;;;;;;;5013769;28;20045;-68
2021/12/09 06:21:50;;;;;;;22.13;11.82;;;;;;;;;;5013868;28;20091;-68
2021/12/09 06:24:18;;;;;;;26.52;11.00;;;;;;;;;;5001103;28;20096;-67
2021/12/09 06:26:44;;;;;;;22.15;10.68;;;;;;;;;;5000896;28;20399;-67
2021/12/09 06:29:11;;;;;;;18.23;10.82;;;1.50;99.90;;;;;;5001182;28;20076;-68
2021/12/09 06:31:37;;;;;;;25.40;10.93;;;;;;;;;;5018414;28;20060;-68
2021/12/09 06:34:04;;;;;;;20.27;10.45;;;;;;;;;;5019296;28;20042;-68
2021/12/09 06:36:30;;;;;;;14.43;9.65;;;;;;;;;;5017224;28;20484;-68
2021/12/09 06:38:56;;;;;;;23.95;11.80;;;;;;;;;;5017277;28;20106;-68
2021/12/09 06:41:22;;;;;;;20.35;11.73;;;1.50;99.90;;;;;;5017435;28;20497;-67
2021/12/09 06:43:47;;;;;;;19.95;10.27;;;1.60;99.90;;;;;;5017378;28;20085;-67
2021/12/09 06:46:14;;;;;;;16.08;10.20;;;;;;;;;;5016928;28;20042;-68
2021/12/09 06:48:40;;;;;;;19.95;10.68;;;;;;;;;;5017160;28;20069;-68
2021/12/09 06:51:06;;;;;;;17.98;10.70;;;;;;;;;;5017081;28;20092;-68
2021/12/09 06:53:33;;;;;;;20.58;10.48;;;;;;;;;;5017071;28;20127;-68
2021/12/09 06:56:00;;;;;;;20.65;10.15;;;;;;;;;;5016905;28;20099;-68
2021/12/09 06:58:26;;;;;;;27.58;11.15;;;;;;;;;;5017288;28;20406;-68
2021/12/09 07:00:54;;;;;;;18.38;10.30;;;;;;;;;;5016882;28;20041;-68
2021/12/09 07:03:21;;;;;;;20.27;10.18;;;1.40;99.90;;;;;;5016758;28;20049;-68
2021/12/09 07:05:48;;;;;;;21.85;10.18;;;;;;;;;;5016728;28;20461;-68
2021/12/09 07:08:15;;;;;;;20.90;9.95;;;;;;;;;;5016816;28;20037;-68
2021/12/09 07:10:42;;;;;;;25.75;10.52;;;;;;;;;;5000455;28;20045;-68
2021/12/09 07:13:08;;;;;;;25.00;10.77;;;;;;;;;;5016605;28;20044;-68
2021/12/09 07:15:34;;;;;;;22.00;11.93;;;;;;;;;;5000245;28;20073;-68
2021/12/09 07:18:00;;;;;;;17.67;9.82;;;;;;;;;;5016898;28;20049;-68
2021/12/09 07:20:29;;;;;;;22.25;11.50;;;;;;;;;;5016667;28;20565;-68
2021/12/09 07:22:56;;;;;;;17.95;9.93;;;;;;;;;;5016896;28;20038;-68
2021/12/09 07:25:24;;;;;;;24.08;11.75;;;;;;;;;;4999693;28;20041;-67
2021/12/09 07:27:50;;;;;;;18.90;10.15;;;;;;;;;;5016205;28;20487;-68
2021/12/09 07:30:18;;;;;;;18.55;10.80;;;;;;;;;;5000013;28;20042;-68
2021/12/09 07:32:45;;;;;;;24.05;11.02;;;;;;;;;;5016551;28;20060;-68
2021/12/09 07:35:12;;;;;;;20.73;10.85;;;;;;;;;;5015030;28;20099;-68
2021/12/09 07:37:38;;;;;;;17.33;10.23;;;;;;;;;;5015960;28;20076;-68
2021/12/09 07:40:05;;;;;;;24.35;10.48;;;;;;;;;;5016400;28;20074;-68
2021/12/09 07:42:31;;;;;;;20.08;10.52;;;;;;;;;;5016446;28;20459;-68
2021/12/09 07:44:57;;;;;;;17.67;10.10;;;;;;;;;;5016150;28;20052;-67
2021/12/09 07:47:23;;;;;;;18.15;9.93;;;;;;;;;;5015814;28;20064;-67
2021/12/09 07:49:49;;;;;;;24.48;10.23;;;;;;;;;;5016327;28;20045;-68
2021/12/09 07:52:15;;;;;;;19.70;10.32;;;;;;;;;;5016144;28;20120;-68
2021/12/09 07:54:41;;;;;;;19.58;9.90;;;;;;;;;;5016194;28;20089;-67
2021/12/09 07:57:07;;;;;;;23.73;10.05;;;;;;;;;;4999329;28;20649;-68
2021/12/09 07:59:33;;;;;;;24.38;10.07;;;;;;;;;;5016124;28;20077;-67
2021/12/09 08:01:59;;;;;;;26.45;10.82;;;;;;;;;;5016045;28;20045;-67
2021/12/09 08:04:25;;;;;;;26.80;10.77;;;;;;;;;;5015708;28;20037;-68
2021/12/09 08:06:51;;;;;;;22.95;10.50;;;;;;;;;;5015331;28;20171;-67
2021/12/09 08:09:17;;;;;;;23.98;10.38;;;;;;;;;;5015708;28;20040;-68
2021/12/09 08:11:44;;;;;;;32.15;10.77;;;;;;;;;;5015696;28;20034;-68
2021/12/09 08:14:11;;;;;;;19.40;9.23;;;;;;;;;;5015580;28;20037;-68
2021/12/09 08:16:38;;;;;;;16.55;9.65;;;;;;;;;;5015513;28;20168;-68
2021/12/09 08:19:09;;;;;;;28.42;10.73;;;1.90;99.90;;;;;;5015774;28;20077;-68
2021/12/09 08:21:37;;;;;;;21.02;9.43;;;;;;;;;;5015622;28;20219;-68
2021/12/09 08:24:08;;;;;;;23.05;9.73;;;1.80;99.90;;;;;;5015259;28;20575;-68
2021/12/09 08:26:35;;;;;;;17.63;9.20;;;;;;;;;;4998560;28;20080;-68
2021/12/09 08:29:02;;;;;;;17.88;9.68;;;;;;;;;;5033132;28;20037;-67
2021/12/09 08:31:32;;;;;;;15.05;9.10;;;;;;;;;;5015271;28;20044;-68
2021/12/09 08:33:58;;;;;;;23.05;9.75;;;;;;;;;;5015004;28;20045;-68
2021/12/09 08:36:26;;;;;;;18.48;9.02;;;;;;;;;;5015031;28;20144;-68
2021/12/09 08:38:51;;;;;;;22.10;10.32;;;2.10;99.90;;;;;;5015322;28;20085;-68
2021/12/09 08:41:19;;;;;;;22.55;9.57;;;;;;;;;;5015582;28;20072;-68
2021/12/09 08:43:45;;;;;;;20.60;9.57;;;;;;;;;;5014841;28;20042;-68
2021/12/09 08:46:11;;;;;;;19.58;9.45;;;;;;;;;;5013711;28;20049;-68
2021/12/09 08:48:37;;;;;;;22.10;10.05;;;;;;;;;;5014811;28;20072;-68
2021/12/09 08:51:04;;;;;;;21.90;9.40;;;;;;;;;;4998502;28;20092;-68
2021/12/09 08:53:30;;;;;;;22.00;9.82;;;;;;;;;;5014830;28;20053;-68
2021/12/09 08:55:56;;;;;;;23.55;10.07;;;;;;;;;;5014837;28;20041;-67
2021/12/09 08:58:23;;;;;;;18.40;9.18;;;;;;;;;;5015836;28;20037;-68
2021/12/09 09:00:52;;;;;;;18.80;9.13;;;;;;;;;;5015132;28;20072;-68
2021/12/09 09:03:18;;;;;;;19.15;8.80;;;;;;;;;;5014737;28;20546;-68
2021/12/09 09:05:44;;;;;;;29.45;10.13;;;;;;;;;;5014395;28;20045;-68
2021/12/09 09:08:10;;;;;;;20.30;9.10;;;;;;;;;;5014790;28;20037;-68
2021/12/09 09:10:37;;;;;;;21.10;8.95;;;;;;;;;;5014607;28;20121;-68
2021/12/09 09:13:04;;;;;;;19.27;8.73;;;;;;;;;;5014390;28;20037;-68
2021/12/09 09:15:31;;;;;;;18.75;8.05;;;;;;;;;;4997728;28;20046;-68
2021/12/09 09:17:58;;;;;;;21.05;10.15;;;;;;;;;;5014575;28;20447;-68
2021/12/09 09:20:25;;;;;;;15.90;8.05;;;;;;;;;;5014605;28;20042;-68
2021/12/09 09:22:51;;;;;;;20.77;9.18;;;;;;;;;;5014373;28;20045;-68
2021/12/09 09:25:20;;;;;;;15.73;9.25;;;;;;;;;;5013965;28;20064;-67
2021/12/09 09:27:47;;;;;;;23.10;9.10;;;;;;;;;;4997941;28;20113;-67
2021/12/09 09:30:17;;;;;;;17.67;8.38;;;;;;;;;;5014440;28;20509;-68
2021/12/09 09:32:43;;;;;;;20.55;9.30;;;;;;;;;;5014417;28;20038;-68
2021/12/09 09:35:09;;;;;;;17.85;8.48;;;;;;;;;;5013512;28;20053;-68
2021/12/09 09:37:35;;;;;;;17.60;7.75;;;;;;;;;;5014251;28;20049;-69
2021/12/09 09:40:05;;;;;;;18.10;8.70;;;;;;;;;;4997920;28;20045;-68
2021/12/09 09:45:01;;;;;;;16.92;7.45;;;;;;;;;;5013713;28;20045;-68
2021/12/09 09:47:27;;;;;;;21.95;8.65;;;2.90;99.90;;;;;;4997528;28;20045;-69
2021/12/09 09:49:54;;;;;;;18.55;8.98;;;;;;;;;;5014161;28;20036;-69
2021/12/09 09:52:20;;;;;;;19.65;8.90;;;;;;;;;;5013662;28;20041;-68
2021/12/09 09:54:47;;;;;;;19.30;8.68;;;;;;;;;;5013628;28;20413;-69
2021/12/09 09:57:13;;;;;;;18.83;8.85;;;;;;;;;;5013311;28;20080;-68
2021/12/09 09:59:42;;;;;;;20.13;8.95;;;2.90;99.90;;;;;;5013949;28;20056;-68
2021/12/09 10:02:09;;;;;;;20.90;9.18;;;;;;;;;;5013849;28;20044;-68
2021/12/09 10:04:45;;;;;;;20.83;8.75;;;;;;;;;;5013576;28;20049;-68
2021/12/09 10:07:12;;;;;;;14.85;7.78;;;;;;;;;;5013337;28;20045;-68
2021/12/09 10:09:38;;;;;;;18.48;8.80;;;;;;;;;;5013759;28;20049;-68
2021/12/09 10:12:04;;;;;;;21.38;9.63;;;;;;;;;;5013495;28;20038;-68
2021/12/09 10:14:34;;;;;;;21.52;9.10;;;;;;;;;;5013591;28;20045;-68
2021/12/09 10:17:06;;;;;;;20.55;8.75;;;;;;;;;;5013203;28;20565;-68
2021/12/09 10:19:33;;;;;;;17.00;9.32;;;;;;;;;;5013615;28;20402;-69
2021/12/09 10:22:12;;;;;;;19.95;9.15;;;;;;;;;;5013719;28;20045;-68
2021/12/09 10:24:40;;;;;;;20.75;8.77;;;;;;;;;;5013462;28;20049;-69
2021/12/09 10:27:13;;;;;;;27.17;10.38;;;;;;;;;;5013072;28;20041;-68
2021/12/09 10:29:44;;;;;;;21.38;9.52;;;;;;;;;;5013459;28;20042;-68
2021/12/09 10:32:13;;;;;;;21.77;10.05;;;;;;;;;;5013785;28;20068;-68
2021/12/09 10:34:45;;;;;;;23.88;10.32;;;;;;;;;;5012766;28;20065;-68
2021/12/09 10:37:31;;;;;;;25.20;11.18;;;3.30;99.90;;;;;;5013068;28;20045;-68
2021/12/09 10:40:07;;;;;;;22.42;10.85;;;3.20;99.90;;;;;;5013474;28;20237;-68
2021/12/09 10:42:34;;;;;;;24.77;11.50;;;;;;;;;;5013608;28;20045;-68
2021/12/09 10:45:08;;;;;;;27.52;11.98;;;;;;;;;;5013235;28;20056;-68
2021/12/09 10:47:55;;;;;;;20.83;11.32;;;3.30;99.90;;;;;;5013291;28;20033;-69
2021/12/09 10:53:18;;;;;;;22.73;11.45;;;;;;;;;;5013592;28;20049;-69
2021/12/09 10:55:45;;;;;;;23.00;11.70;;;;;;;;;;5012994;28;20067;-69
2021/12/09 10:58:13;;;;;;;27.23;12.15;;;;;;;;;;5013270;28;20123;-69
2021/12/09 11:00:44;;;;;;;29.85;12.18;;;;;;;;;;5013094;28;20037;-69
2021/12/09 11:03:13;;;;;;;31.77;12.95;;;;;;;;;;5013269;28;20046;-68
2021/12/09 11:05:41;;;;;;;27.95;12.23;;;;;;;;;;5012636;28;20045;-69
2021/12/09 11:08:21;;;;;;;32.08;13.90;;;;;;;;;;4997064;28;20041;-69
2021/12/09 11:10:48;;;;;;;28.25;12.70;;;;;;;;;;5016469;28;20045;-68
2021/12/09 11:13:18;;;;;;;31.13;14.82;;;3.50;99.90;;;;;;5017046;28;20367;-69
2021/12/09 11:15:55;;;;;;;26.63;12.13;;;;;;;;;;5016537;28;20395;-69
2021/12/09 11:18:34;;;;;;;27.33;12.75;;;;;;;;;;5016657;28;20083;-68
2021/12/09 11:21:03;;;;;;;34.22;14.88;;;;;;;;;;5016608;28;20072;-69
2021/12/09 11:23:34;;;;;;;25.05;12.85;;;;;;;;;;5000030;28;20041;-68
2021/12/09 11:26:21;;;;;;;32.00;14.13;;;;;;;;;;5016117;28;20514;-69
2021/12/09 11:29:05;;;;;;;26.20;13.48;;;;;;;;;;5016448;28;20077;-69
2021/12/09 11:31:34;;;;;;;32.20;14.23;;;3.50;99.90;;;;;;5000297;28;20108;-69
2021/12/09 11:34:05;;;;;;;24.90;12.75;;;;;;;;;;5016106;28;20403;-68
2021/12/09 11:36:42;;;;;;;30.35;13.18;;;;;;;;;;5015907;28;20053;-68
2021/12/09 11:39:17;;;;;;;22.58;11.30;;;;;;;;;;5016211;28;20048;-68
2021/12/09 11:41:44;;;;;;;27.65;13.70;;;;;;;;;;5016201;28;20081;-70
2021/12/09 11:44:10;;;;;;;32.65;14.77;;;;;;;;;;4999626;28;20437;-70
2021/12/09 11:46:41;;;;;;;30.65;12.85;;;;;;;;;;5015723;28;20087;-69
2021/12/09 11:49:07;;;;;;;28.45;13.30;;;;;;;;;;5015950;28;20059;-70
2021/12/09 11:51:34;;;;;;;30.33;13.82;;;;;;;;;;5016270;28;20064;-69
2021/12/09 11:54:01;;;;;;;29.02;14.20;;;;;;;;;;5015908;28;20044;-69
2021/12/09 11:56:37;;;;;;;26.23;14.45;;;;;;;;;;5015504;28;20620;-69
2021/12/09 12:07:18;;;;;;;37.60;14.00;;;;;;;;;;5066195;23;20106;-67
2021/12/09 12:12:39;;;;;;;27.67;13.77;;;;;;;;;;5052610;28;20407;-67
2021/12/09 12:18:13;;;;;;;31.38;15.55;;;;;;;;;;5048834;28;20041;-67
2021/12/09 12:20:46;;;;;;;29.38;15.68;;;3.70;99.90;;;;;;5049115;28;20056;-67
2021/12/09 12:23:32;;;;;;;25.92;14.55;;;;;;;;;;5049027;28;20045;-67
2021/12/09 12:37:13;;;;;;;40.80;16.35;;;4.00;99.90;;;;;;5031911;28;20116;-67
2021/12/09 12:40:00;;;;;;;34.65;16.63;;;;;;;;;;5032037;28;20060;-67
2021/12/09 12:42:43;;;;;;;38.17;15.95;;;3.90;99.90;;;;;;5048772;28;20470;-67
2021/12/09 12:45:14;;;;;;;;;;;;;;;;;;5032213;28;20073;-67
2021/12/09 12:47:48;;;;;;;28.85;15.50;;;;;;;;;;5031597;28;19917;-67
2021/12/09 12:50:16;;;;;;;38.67;16.58;;;3.80;99.90;;;;;;5048616;28;20434;-67
2021/12/09 12:52:44;;;;;;;35.97;16.23;;;;;;;;;;5048527;28;20347;-67
2021/12/09 12:55:13;;;;;;;33.70;15.73;;;3.80;99.90;;;;;;5048480;28;20525;-67
2021/12/09 12:57:40;;;;;;;38.22;17.15;;;;;;;;;;5047966;28;20042;-67
2021/12/09 13:00:12;;;;;;;37.33;16.02;;;3.80;99.90;;;;;;5048432;28;20505;-67
2021/12/09 13:13:27;;;;;;;34.35;16.73;;;4.00;99.90;;;;;;5031553;28;20134;-67
2021/12/09 13:21:34;;;;;;;43.28;17.92;;;;;;;;;;5031115;28;20056;-67
2021/12/09 13:24:19;;;;;;;39.92;17.13;;;;;;;;;;5030988;28;20072;-67
2021/12/09 13:45:53;;;;;;;33.60;18.17;;;4.00;99.90;;;;;;5031094;28;20037;-68
2021/12/09 13:49:09;;;;;;;39.53;19.88;;;3.90;99.90;;;;;;5031035;28;20080;-67
2021/12/09 13:57:00;;;;;;;37.03;17.77;;;4.00;99.90;;;;;;5030625;28;20045;-67
2021/12/09 13:59:28;;;;;;;42.35;17.02;;;3.90;99.90;;;;;;5030839;28;20132;-67
2021/12/09 14:01:55;;;;;;;50.47;18.90;;;;;;;;;;5030822;28;20478;-67
2021/12/09 14:04:23;;;;;;;39.97;16.77;;;;;;;;;;5030458;28;20568;-67
2021/12/09 14:07:00;;;;;;;36.47;17.13;;;4.10;99.90;;;;;;5046568;28;20049;-67
2021/12/09 14:09:28;;;;;;;35.65;16.45;;;;;;;;;;5047266;28;20100;-67
2021/12/09 14:11:54;;;;;;;38.17;17.77;;;;;;;;;;5030751;28;20041;-67
2021/12/09 14:14:26;;;;;;;39.25;17.90;;;3.90;99.90;;;;;;5030332;28;20056;-67
2021/12/09 14:17:00;;;;;;;37.58;15.43;;;;;;;;;;5046899;28;20049;-67
2021/12/09 14:21:56;;;;;;;37.63;16.42;;;;;;;;;;5030409;28;20049;-67
2021/12/09 14:24:25;;;;;;;33.10;17.08;;;4.10;99.90;;;;;;5030185;28;20045;-67
2021/12/09 14:26:56;;;;;;;32.63;16.90;;;3.90;99.90;;;;;;5031315;28;20033;-67
2021/12/09 14:29:23;;;;;;;34.88;16.13;;;;;;;;;;5046930;28;20038;-67
2021/12/09 14:31:52;;;;;;;36.10;15.90;;;4.10;99.90;;;;;;5030473;28;20049;-67
2021/12/09 14:34:19;;;;;;;34.17;15.55;;;;;;;;;;5029893;28;20045;-67
2021/12/09 14:36:45;;;;;;;41.17;16.67;;;;;;;;;;5029926;28;20041;-67
2021/12/09 14:39:14;;;;;;;38.60;16.45;;;;;;;;;;5030183;28;20465;-68
2021/12/09 14:41:40;;;;;;;33.72;16.58;;;4.00;99.90;;;;;;5030104;28;20041;-67
2021/12/09 14:44:09;;;;;;;33.92;16.00;;;;;;;;;;5048752;28;20398;-67
2021/12/09 14:46:39;;;;;;;33.80;16.27;;;4.10;99.90;;;;;;5051160;28;20442;-67
2021/12/09 14:49:23;;;;;;;38.80;16.70;;;4.20;99.90;;;;;;5050702;28;20033;-67
2021/12/09 14:51:52;;;;;;;38.78;16.92;;;4.10;99.90;;;;;;5033952;28;20048;-67
2021/12/09 14:54:19;;;;;;;29.77;15.00;;;;;;;;;;5034171;28;20399;-67
2021/12/09 14:56:48;;;;;;;35.30;15.75;;;;;;;;;;5033637;28;20518;-67
2021/12/09 14:59:15;;;;;;;45.38;17.20;;;4.10;99.90;;;;;;5050728;28;20045;-67
2021/12/09 15:01:42;;;;;;;35.97;16.60;;;4.10;99.90;;;;;;5050765;28;20049;-67
2021/12/09 15:04:15;;;;;;;33.13;15.73;;;4.10;99.90;;;;;;5033937;28;20042;-67
2021/12/09 15:06:44;;;;;;;37.20;16.25;;;4.10;99.90;;;;;;5050156;28;20041;-67
2021/12/09 15:09:17;;;;;;;36.08;16.77;;;4.30;99.90;;;;;;5034992;28;20044;-67